createdAt,value
2022-12-23T03:45:40.835Z,29.09
2022-12-23T03:46:35.532Z,29.10
2022-12-23T03:47:35.475Z,29.10
2022-12-23T03:48:35.437Z,29.10
2022-12-23T03:49:35.433Z,29.13
2022-12-23T03:50:35.418Z,29.09
2022-12-23T03:51:35.436Z,29.13
2022-12-23T03:52:35.400Z,29.10
2022-12-23T03:53:35.389Z,29.17
2022-12-23T03:54:35.384Z,29.13
2022-12-23T03:55:35.373Z,29.15
2022-12-23T03:56:35.360Z,29.15
2022-12-23T03:57:35.368Z,29.16
2022-12-23T03:58:35.346Z,29.13
2022-12-23T03:59:35.336Z,29.16
2022-12-23T04:00:35.324Z,29.13
2022-12-23T04:01:35.469Z,29.13
2022-12-23T04:02:35.503Z,29.15
2022-12-23T04:03:35.331Z,29.10
2022-12-23T04:04:35.330Z,29.10
2022-12-23T04:05:35.279Z,29.13
2022-12-23T04:06:35.272Z,29.12
2022-12-23T04:07:35.297Z,29.13
2022-12-23T04:08:35.257Z,29.12
2022-12-23T04:09:35.252Z,29.12
2022-12-23T04:10:35.249Z,29.09
2022-12-23T04:11:35.228Z,29.09
2022-12-23T04:12:35.228Z,29.09
2022-12-23T04:13:35.219Z,29.07
2022-12-23T04:14:35.204Z,29.09
2022-12-23T04:15:35.188Z,29.05
2022-12-23T04:16:35.257Z,29.10
2022-12-23T04:17:35.199Z,29.09
2022-12-23T04:18:35.162Z,29.06
2022-12-23T04:19:35.169Z,29.05
2022-12-23T04:20:35.164Z,29.02
2022-12-23T04:21:35.163Z,29.02
2022-12-23T04:22:35.160Z,29.02
2022-12-23T04:23:35.164Z,29.05
2022-12-23T04:24:35.115Z,29.13
2022-12-23T04:25:35.099Z,29.07
2022-12-23T04:26:35.094Z,29.03
2022-12-23T04:27:35.082Z,29.13
2022-12-23T04:28:35.075Z,29.17
2022-12-23T04:29:35.067Z,29.18
2022-12-23T04:30:35.204Z,29.14
2022-12-23T04:31:35.146Z,29.25
2022-12-23T04:32:35.036Z,29.20
2022-12-23T04:33:35.042Z,29.21
2022-12-23T04:34:35.023Z,29.21
2022-12-23T04:35:35.009Z,29.24
2022-12-23T04:36:35.001Z,29.22
2022-12-23T04:37:34.991Z,29.18
2022-12-23T04:38:34.995Z,29.27
2022-12-23T04:39:34.998Z,29.28
2022-12-23T04:40:34.964Z,29.31
2022-12-23T04:41:34.961Z,29.32
2022-12-23T04:42:34.945Z,29.29
2022-12-23T04:43:35.622Z,29.32
2022-12-23T04:44:34.940Z,29.33
2022-12-23T04:45:34.923Z,29.36
2022-12-23T04:46:35.037Z,29.37
2022-12-23T04:47:34.914Z,29.30
2022-12-23T04:48:34.894Z,29.36
2022-12-23T04:49:34.879Z,29.32
2022-12-23T04:50:34.876Z,29.38
2022-12-23T04:51:34.861Z,29.37
2022-12-23T04:52:34.862Z,29.30
2022-12-23T04:53:34.859Z,29.36
2022-12-23T04:54:34.837Z,29.39
2022-12-23T04:55:34.865Z,29.39
2022-12-23T04:56:34.818Z,29.40
2022-12-23T04:57:34.816Z,29.40
2022-12-23T04:58:34.808Z,29.42
2022-12-23T04:59:34.794Z,29.40
2022-12-23T05:00:39.520Z,29.44
2022-12-23T05:01:34.951Z,29.42
2022-12-23T05:02:34.910Z,29.43
2022-12-23T05:03:34.840Z,29.37
2022-12-23T05:04:34.808Z,29.39
2022-12-23T05:05:34.768Z,29.42
2022-12-23T05:06:34.729Z,29.40
2022-12-23T05:07:34.723Z,29.37
2022-12-23T05:08:34.708Z,29.37
2022-12-23T05:09:34.697Z,29.42
2022-12-23T05:10:34.693Z,29.43
2022-12-23T05:11:40.212Z,29.44
2022-12-23T05:12:34.684Z,29.44
2022-12-23T05:13:34.680Z,29.44
2022-12-23T05:14:34.667Z,29.50
2022-12-23T05:15:34.651Z,29.48
2022-12-23T05:16:34.683Z,29.47
2022-12-23T05:17:34.628Z,29.45
2022-12-23T05:18:34.628Z,29.47
2022-12-23T05:19:34.616Z,29.40
2022-12-23T05:20:34.602Z,29.47
2022-12-23T05:21:34.604Z,29.54
2022-12-23T05:22:34.584Z,29.47
2022-12-23T05:23:34.580Z,29.48
2022-12-23T05:24:34.588Z,29.49
2022-12-23T05:25:34.560Z,29.48
2022-12-23T05:26:34.544Z,29.53
2022-12-23T05:27:34.566Z,29.50
2022-12-23T05:28:34.527Z,29.50
2022-12-23T05:29:34.521Z,29.48
2022-12-23T05:30:34.507Z,29.45
2022-12-23T05:31:34.582Z,29.51
2022-12-23T05:32:34.495Z,29.50
2022-12-23T05:33:34.553Z,29.54
2022-12-23T05:34:34.505Z,29.50
2022-12-23T05:35:34.467Z,29.51
2022-12-23T05:36:34.459Z,29.51
2022-12-23T05:37:34.448Z,29.51
2022-12-23T05:38:34.434Z,29.47
2022-12-23T05:39:34.431Z,29.54
2022-12-23T05:40:34.423Z,29.48
2022-12-23T05:41:34.421Z,29.50
2022-12-23T05:42:34.401Z,29.51
2022-12-23T05:43:34.415Z,29.55
2022-12-23T05:44:34.402Z,29.51
2022-12-23T05:45:34.404Z,29.50
2022-12-23T05:46:34.433Z,29.55
2022-12-23T05:47:34.362Z,29.50
2022-12-23T05:48:34.345Z,29.50
2022-12-23T05:49:34.336Z,29.54
2022-12-23T05:50:34.335Z,29.56
2022-12-23T05:51:34.320Z,29.54
2022-12-23T05:52:34.313Z,29.51
2022-12-23T05:53:34.299Z,29.50
2022-12-23T05:54:34.296Z,29.51
2022-12-23T05:55:34.290Z,29.51
2022-12-23T05:56:34.277Z,29.50
2022-12-23T05:57:34.275Z,29.47
2022-12-23T05:58:34.259Z,29.51
2022-12-23T05:59:34.268Z,29.51
2022-12-23T06:00:34.272Z,29.50
2022-12-23T06:01:34.347Z,29.53
2022-12-23T06:02:34.435Z,29.55
2022-12-23T06:03:34.599Z,29.53
2022-12-23T06:04:34.200Z,29.49
2022-12-23T06:05:34.191Z,29.55
2022-12-23T06:06:34.181Z,29.54
2022-12-23T06:07:34.175Z,29.54
2022-12-23T06:08:34.160Z,29.51
2022-12-23T06:09:34.157Z,29.48
2022-12-23T06:10:34.145Z,29.46
2022-12-23T06:11:34.139Z,29.35
2022-12-23T06:12:34.141Z,29.37
2022-12-23T06:13:34.116Z,29.36
2022-12-23T06:14:34.115Z,29.43
2022-12-23T06:15:34.127Z,29.36
2022-12-23T06:16:34.155Z,29.46
2022-12-23T06:17:34.105Z,29.51
2022-12-23T06:18:34.077Z,29.57
2022-12-23T06:19:34.068Z,29.84
2022-12-23T06:20:34.053Z,29.80
2022-12-23T06:21:34.044Z,29.83
2022-12-23T06:22:34.041Z,30.00
2022-12-23T06:23:34.026Z,30.13
2022-12-23T06:24:34.018Z,30.24
2022-12-23T06:25:34.007Z,30.23
2022-12-23T06:26:33.999Z,30.20
2022-12-23T06:27:33.994Z,30.19
2022-12-23T06:28:33.989Z,30.35
2022-12-23T06:29:33.977Z,30.46
2022-12-23T06:30:33.965Z,30.48
2022-12-23T06:31:34.030Z,30.51
2022-12-23T06:32:38.105Z,30.54
2022-12-23T06:33:33.938Z,30.59
2022-12-23T06:34:33.932Z,30.74
2022-12-23T06:35:33.925Z,30.75
2022-12-23T06:36:33.907Z,30.77
2022-12-23T06:37:33.924Z,30.86
2022-12-23T06:38:33.893Z,30.96
2022-12-23T06:39:33.883Z,31.02
2022-12-23T06:40:33.903Z,31.06
2022-12-23T06:41:33.878Z,31.15
2022-12-23T06:42:33.874Z,31.17
2022-12-23T06:43:33.845Z,31.22
2022-12-23T06:44:33.862Z,31.29
2022-12-23T06:45:33.934Z,31.29
2022-12-23T06:46:33.817Z,31.31
2022-12-23T06:47:33.835Z,31.45
2022-12-23T06:48:33.808Z,31.45
2022-12-23T06:49:33.799Z,31.48
2022-12-23T06:50:33.806Z,31.56
2022-12-23T06:51:33.777Z,31.58
2022-12-23T06:52:33.765Z,31.50
2022-12-23T06:53:33.756Z,31.59
2022-12-23T06:54:33.742Z,31.56
2022-12-23T06:55:33.741Z,31.68
2022-12-23T06:56:33.731Z,31.66
2022-12-23T06:57:33.717Z,31.78
2022-12-23T06:58:33.716Z,31.71
2022-12-23T06:59:33.710Z,31.75
2022-12-23T07:00:33.733Z,31.83
2022-12-23T07:01:33.786Z,31.81
2022-12-23T07:02:33.803Z,31.82
2022-12-23T07:03:33.888Z,31.96
2022-12-23T07:04:33.658Z,31.96
2022-12-23T07:05:36.944Z,31.99
2022-12-23T07:06:33.635Z,32.03
2022-12-23T07:07:33.628Z,32.06
2022-12-23T07:08:33.612Z,32.09
2022-12-23T07:09:33.609Z,32.10
2022-12-23T07:10:33.598Z,32.11
2022-12-23T07:11:33.586Z,32.17
2022-12-23T07:12:33.576Z,32.26
2022-12-23T07:13:33.575Z,32.20
2022-12-23T07:14:33.566Z,32.11
2022-12-23T07:15:33.555Z,32.21
2022-12-23T07:16:33.624Z,32.23
2022-12-23T07:17:33.536Z,32.23
2022-12-23T07:18:33.528Z,32.19
2022-12-23T07:19:33.537Z,32.24
2022-12-23T07:20:33.517Z,32.17
2022-12-23T07:25:33.690Z,32.35
2022-12-23T22:04:25.535Z,32.13
2022-12-23T22:05:25.513Z,32.15
2022-12-23T22:06:25.503Z,32.12
2022-12-23T22:07:25.515Z,32.07
2022-12-23T22:08:25.489Z,32.10
2022-12-23T22:09:25.484Z,32.10
2022-12-23T22:10:25.483Z,32.09
2022-12-23T22:11:25.475Z,32.05
2022-12-23T22:12:25.442Z,32.09
2022-12-23T22:13:25.436Z,32.09
2022-12-23T22:14:25.425Z,32.12
2022-12-23T22:15:25.444Z,32.05
2022-12-23T22:16:25.519Z,32.09
2022-12-23T22:17:25.399Z,32.09
2022-12-23T22:18:25.394Z,32.02
2022-12-23T22:19:25.392Z,32.10
2022-12-23T22:20:25.376Z,32.04
2022-12-23T22:21:25.386Z,32.08
2022-12-23T22:22:25.351Z,32.06
2022-12-23T22:23:25.342Z,32.06
2022-12-23T22:24:25.336Z,32.07
2022-12-23T22:25:25.333Z,32.02
2022-12-23T22:26:26.310Z,32.02
2022-12-23T22:27:25.305Z,32.02
2022-12-23T22:28:25.297Z,32.05
2022-12-23T22:29:25.288Z,32.07
2022-12-23T22:30:25.300Z,32.04
2022-12-23T22:31:25.351Z,32.11
2022-12-23T22:32:25.260Z,32.03
2022-12-23T22:33:25.270Z,32.03
2022-12-23T22:34:25.241Z,31.99
2022-12-23T22:35:25.243Z,32.02
2022-12-23T22:36:25.285Z,32.02
2022-12-23T22:37:25.216Z,31.97
2022-12-23T22:38:25.203Z,31.99
2022-12-23T22:39:25.202Z,32.00
2022-12-23T22:40:25.186Z,32.03
2022-12-23T22:41:25.182Z,32.00
2022-12-23T22:42:25.170Z,32.02
2022-12-23T22:43:25.170Z,32.04
2022-12-23T22:44:25.156Z,32.02
2022-12-23T22:45:25.210Z,31.97
2022-12-23T22:46:25.218Z,32.03
2022-12-23T22:47:25.147Z,31.97
2022-12-23T22:48:25.117Z,32.00
2022-12-23T22:49:25.136Z,32.00
2022-12-23T22:50:25.097Z,31.99
2022-12-23T22:51:25.101Z,31.99
2022-12-23T22:52:25.082Z,32.03
2022-12-23T22:53:29.732Z,31.99
2022-12-23T22:54:25.075Z,31.99
2022-12-23T22:55:25.055Z,31.99
2022-12-23T22:56:25.065Z,32.00
2022-12-23T22:57:25.034Z,31.99
2022-12-23T22:58:25.023Z,31.99
2022-12-23T22:59:25.014Z,31.96
2022-12-23T23:00:25.012Z,32.00
2022-12-23T23:01:25.005Z,31.97
2022-12-23T23:02:25.043Z,31.98
2022-12-23T23:03:25.003Z,32.02
2022-12-23T23:04:24.970Z,31.97
2022-12-23T23:05:25.040Z,32.02
2022-12-23T23:06:24.950Z,31.93
2022-12-23T23:07:24.945Z,31.99
2022-12-23T23:08:24.942Z,32.02
2022-12-23T23:09:24.956Z,32.02
2022-12-23T23:10:24.917Z,32.00
2022-12-23T23:11:24.910Z,31.93
2022-12-23T23:12:24.917Z,32.02
2022-12-23T23:13:24.891Z,31.97
2022-12-23T23:14:24.878Z,31.94
2022-12-23T23:15:24.889Z,31.97
2022-12-23T23:16:24.980Z,31.96
2022-12-23T23:17:24.852Z,31.94
2022-12-23T23:18:24.844Z,31.96
2022-12-23T23:19:24.858Z,31.96
2022-12-23T23:20:24.825Z,31.97
2022-12-23T23:21:24.816Z,31.97
2022-12-23T23:22:24.805Z,31.94
2022-12-23T23:23:24.793Z,31.97
2022-12-23T23:24:30.933Z,31.96
2022-12-23T23:25:24.778Z,31.97
2022-12-23T23:26:24.769Z,31.94
2022-12-23T23:27:24.779Z,31.97
2022-12-23T23:28:24.777Z,31.95
2022-12-23T23:29:24.740Z,31.97
2022-12-23T23:30:24.733Z,31.93
2022-12-23T23:31:41.893Z,31.96
2022-12-23T23:32:24.783Z,31.92
2022-12-23T23:33:24.708Z,31.97
2022-12-23T23:34:24.702Z,31.97
2022-12-23T23:35:24.714Z,31.96
2022-12-23T23:36:24.757Z,31.97
2022-12-23T23:37:24.669Z,31.96
2022-12-23T23:38:24.659Z,31.92
2022-12-23T23:39:24.655Z,31.97
2022-12-23T23:40:24.639Z,31.91
2022-12-23T23:41:24.636Z,31.90
2022-12-23T23:42:24.623Z,31.93
2022-12-23T23:43:24.613Z,31.92
2022-12-23T23:44:24.605Z,31.97
2022-12-23T23:45:24.616Z,31.98
2022-12-23T23:46:24.720Z,31.90
2022-12-23T23:47:25.005Z,31.93
2022-12-23T23:48:24.568Z,31.92
2022-12-23T23:49:24.555Z,31.92
2022-12-23T23:50:24.548Z,31.94
2022-12-23T23:51:24.567Z,32.00
2022-12-23T23:52:24.545Z,31.95
2022-12-23T23:53:24.520Z,31.90
2022-12-23T23:54:24.526Z,31.92
2022-12-23T23:55:24.505Z,31.94
2022-12-23T23:56:26.290Z,31.90
2022-12-23T23:57:24.488Z,31.94
2022-12-23T23:58:24.475Z,31.94
2022-12-23T23:59:24.479Z,31.90
